sensor_id;sensor_type;location;lat;lon;timestamp;P1;durP1;ratioP1;P2;durP2;ratioP2
69979;SDS011;57318;56.232;43.944;2023-08-06T00:00:18;8.97;;;6.20;;
69979;SDS011;57318;56.232;43.944;2023-08-06T00:02:43;11.70;;;6.70;;
69979;SDS011;57318;56.232;43.944;2023-08-06T00:05:09;13.27;;;6.97;;
69979;SDS011;57318;56.232;43.944;2023-08-06T00:07:35;10.87;;;6.63;;
69979;SDS011;57318;56.232;43.944;2023-08-06T00:10:00;12.87;;;6.57;;
69979;SDS011;57318;56.232;43.944;2023-08-06T00:12:29;13.13;;;7.07;;
69979;SDS011;57318;56.232;43.944;2023-08-06T00:14:55;13.60;;;6.75;;
69979;SDS011;57318;56.232;43.944;2023-08-06T00:17:20;9.87;;;6.50;;
69979;SDS011;57318;56.232;43.944;2023-08-06T00:19:46;10.10;;;6.77;;
69979;SDS011;57318;56.232;43.944;2023-08-06T00:22:12;10.67;;;6.87;;
69979;SDS011;57318;56.232;43.944;2023-08-06T00:24:37;12.30;;;7.17;;
69979;SDS011;57318;56.232;43.944;2023-08-06T00:27:03;10.97;;;7.23;;
69979;SDS011;57318;56.232;43.944;2023-08-06T00:29:29;15.38;;;8.07;;
69979;SDS011;57318;56.232;43.944;2023-08-06T00:31:55;14.50;;;7.27;;
69979;SDS011;57318;56.232;43.944;2023-08-06T00:34:20;11.07;;;7.05;;
69979;SDS011;57318;56.232;43.944;2023-08-06T00:36:46;10.77;;;7.50;;
69979;SDS011;57318;56.232;43.944;2023-08-06T00:39:12;10.30;;;7.17;;
69979;SDS011;57318;56.232;43.944;2023-08-06T00:41:38;11.73;;;7.47;;
69979;SDS011;57318;56.232;43.944;2023-08-06T00:44:04;15.77;;;8.68;;
69979;SDS011;57318;56.232;43.944;2023-08-06T00:46:30;14.63;;;8.88;;
69979;SDS011;57318;56.232;43.944;2023-08-06T00:48:57;13.73;;;8.10;;
69979;SDS011;57318;56.232;43.944;2023-08-06T00:51:29;13.65;;;8.80;;
69979;SDS011;57318;56.232;43.944;2023-08-06T00:56:21;15.40;;;8.48;;
69979;SDS011;57318;56.232;43.944;2023-08-06T00:58:47;18.40;;;9.10;;
69979;SDS011;57318;56.232;43.944;2023-08-06T01:01:13;17.05;;;8.70;;
69979;SDS011;57318;56.232;43.944;2023-08-06T01:03:38;15.53;;;8.80;;
69979;SDS011;57318;56.232;43.944;2023-08-06T01:06:05;15.88;;;8.70;;
69979;SDS011;57318;56.232;43.944;2023-08-06T01:09:06;16.23;;;8.75;;
69979;SDS011;57318;56.232;43.944;2023-08-06T01:11:40;12.68;;;7.35;;
69979;SDS011;57318;56.232;43.944;2023-08-06T01:14:20;14.98;;;8.13;;
69979;SDS011;57318;56.232;43.944;2023-08-06T01:16:53;11.38;;;6.97;;
69979;SDS011;57318;56.232;43.944;2023-08-06T01:19:21;10.57;;;7.35;;
69979;SDS011;57318;56.232;43.944;2023-08-06T01:21:47;11.45;;;6.57;;
69979;SDS011;57318;56.232;43.944;2023-08-06T01:24:12;9.80;;;7.13;;
69979;SDS011;57318;56.232;43.944;2023-08-06T01:26:42;6.82;;;5.20;;
69979;SDS011;57318;56.232;43.944;2023-08-06T01:29:19;9.18;;;5.88;;
69979;SDS011;57318;56.232;43.944;2023-08-06T01:31:55;8.43;;;5.50;;
69979;SDS011;57318;56.232;43.944;2023-08-06T01:34:28;10.60;;;5.40;;
69979;SDS011;57318;56.232;43.944;2023-08-06T01:36:58;10.45;;;6.00;;
69979;SDS011;57318;56.232;43.944;2023-08-06T01:39:25;10.27;;;5.45;;
69979;SDS011;57318;56.232;43.944;2023-08-06T01:41:51;10.30;;;5.60;;
69979;SDS011;57318;56.232;43.944;2023-08-06T01:44:16;6.60;;;4.83;;
69979;SDS011;57318;56.232;43.944;2023-08-06T01:46:43;8.07;;;6.15;;
69979;SDS011;57318;56.232;43.944;2023-08-06T01:49:08;6.57;;;4.57;;
69979;SDS011;57318;56.232;43.944;2023-08-06T01:51:34;10.48;;;5.95;;
69979;SDS011;57318;56.232;43.944;2023-08-06T01:54:00;9.07;;;5.53;;
69979;SDS011;57318;56.232;43.944;2023-08-06T01:56:26;8.23;;;5.72;;
69979;SDS011;57318;56.232;43.944;2023-08-06T01:58:51;10.23;;;5.80;;
69979;SDS011;57318;56.232;43.944;2023-08-06T02:01:17;7.28;;;4.80;;
69979;SDS011;57318;56.232;43.944;2023-08-06T02:03:43;11.17;;;5.20;;
69979;SDS011;57318;56.232;43.944;2023-08-06T02:06:08;5.93;;;4.17;;
69979;SDS011;57318;56.232;43.944;2023-08-06T02:08:34;6.13;;;4.23;;
69979;SDS011;57318;56.232;43.944;2023-08-06T02:11:00;6.27;;;3.90;;
69979;SDS011;57318;56.232;43.944;2023-08-06T02:13:27;5.57;;;4.20;;
69979;SDS011;57318;56.232;43.944;2023-08-06T02:15:52;9.10;;;4.00;;
69979;SDS011;57318;56.232;43.944;2023-08-06T02:18:18;4.93;;;3.80;;
69979;SDS011;57318;56.232;43.944;2023-08-06T02:20:54;5.87;;;4.00;;
69979;SDS011;57318;56.232;43.944;2023-08-06T02:23:21;6.45;;;3.92;;
69979;SDS011;57318;56.232;43.944;2023-08-06T02:25:47;4.68;;;4.22;;
69979;SDS011;57318;56.232;43.944;2023-08-06T02:28:15;6.88;;;4.45;;
69979;SDS011;57318;56.232;43.944;2023-08-06T02:30:48;8.97;;;4.30;;
69979;SDS011;57318;56.232;43.944;2023-08-06T02:33:15;4.65;;;3.90;;
69979;SDS011;57318;56.232;43.944;2023-08-06T02:35:41;9.00;;;4.03;;
69979;SDS011;57318;56.232;43.944;2023-08-06T02:38:06;5.17;;;3.93;;
69979;SDS011;57318;56.232;43.944;2023-08-06T02:40:32;5.50;;;4.07;;
69979;SDS011;57318;56.232;43.944;2023-08-06T02:42:57;9.90;;;4.17;;
69979;SDS011;57318;56.232;43.944;2023-08-06T02:45:23;7.13;;;4.13;;
69979;SDS011;57318;56.232;43.944;2023-08-06T02:47:49;4.73;;;3.93;;
69979;SDS011;57318;56.232;43.944;2023-08-06T02:50:14;10.40;;;4.07;;
69979;SDS011;57318;56.232;43.944;2023-08-06T02:52:40;5.00;;;3.67;;
69979;SDS011;57318;56.232;43.944;2023-08-06T02:55:06;6.83;;;4.07;;
69979;SDS011;57318;56.232;43.944;2023-08-06T02:57:32;6.60;;;3.88;;
69979;SDS011;57318;56.232;43.944;2023-08-06T02:59:58;5.70;;;3.83;;
69979;SDS011;57318;56.232;43.944;2023-08-06T03:02:23;6.72;;;3.63;;
69979;SDS011;57318;56.232;43.944;2023-08-06T03:04:49;5.87;;;3.53;;
69979;SDS011;57318;56.232;43.944;2023-08-06T03:07:15;7.47;;;3.43;;
69979;SDS011;57318;56.232;43.944;2023-08-06T03:09:40;5.07;;;3.27;;
69979;SDS011;57318;56.232;43.944;2023-08-06T03:12:06;6.13;;;3.40;;
69979;SDS011;57318;56.232;43.944;2023-08-06T03:14:32;6.03;;;3.33;;
69979;SDS011;57318;56.232;43.944;2023-08-06T03:16:58;4.17;;;3.73;;
69979;SDS011;57318;56.232;43.944;2023-08-06T03:19:23;5.63;;;3.40;;
69979;SDS011;57318;56.232;43.944;2023-08-06T03:21:49;4.37;;;3.40;;
69979;SDS011;57318;56.232;43.944;2023-08-06T03:24:15;7.97;;;3.78;;
69979;SDS011;57318;56.232;43.944;2023-08-06T03:26:40;5.63;;;3.50;;
69979;SDS011;57318;56.232;43.944;2023-08-06T03:29:06;4.43;;;3.63;;
69979;SDS011;57318;56.232;43.944;2023-08-06T03:31:32;7.63;;;3.73;;
69979;SDS011;57318;56.232;43.944;2023-08-06T03:33:57;7.22;;;4.00;;
69979;SDS011;57318;56.232;43.944;2023-08-06T03:36:23;5.97;;;3.67;;
69979;SDS011;57318;56.232;43.944;2023-08-06T03:38:49;5.22;;;3.58;;
69979;SDS011;57318;56.232;43.944;2023-08-06T03:41:15;6.83;;;3.73;;
69979;SDS011;57318;56.232;43.944;2023-08-06T03:43:40;7.73;;;3.70;;
69979;SDS011;57318;56.232;43.944;2023-08-06T03:46:06;4.57;;;3.35;;
69979;SDS011;57318;56.232;43.944;2023-08-06T03:48:34;4.93;;;3.77;;
69979;SDS011;57318;56.232;43.944;2023-08-06T03:50:59;5.30;;;3.85;;
69979;SDS011;57318;56.232;43.944;2023-08-06T03:53:27;5.78;;;4.40;;
69979;SDS011;57318;56.232;43.944;2023-08-06T03:55:52;6.15;;;4.07;;
69979;SDS011;57318;56.232;43.944;2023-08-06T03:58:18;6.10;;;4.20;;
69979;SDS011;57318;56.232;43.944;2023-08-06T04:00:44;5.23;;;4.23;;
69979;SDS011;57318;56.232;43.944;2023-08-06T04:03:09;6.57;;;4.10;;
69979;SDS011;57318;56.232;43.944;2023-08-06T04:05:35;7.53;;;4.87;;
69979;SDS011;57318;56.232;43.944;2023-08-06T04:08:01;5.65;;;3.97;;
69979;SDS011;57318;56.232;43.944;2023-08-06T04:10:27;6.22;;;4.28;;
69979;SDS011;57318;56.232;43.944;2023-08-06T04:12:52;9.40;;;4.20;;
69979;SDS011;57318;56.232;43.944;2023-08-06T04:15:18;5.83;;;4.83;;
69979;SDS011;57318;56.232;43.944;2023-08-06T04:17:43;5.13;;;4.40;;
69979;SDS011;57318;56.232;43.944;2023-08-06T04:20:09;4.95;;;4.40;;
69979;SDS011;57318;56.232;43.944;2023-08-06T04:22:35;5.30;;;4.40;;
69979;SDS011;57318;56.232;43.944;2023-08-06T04:25:01;10.65;;;4.80;;
69979;SDS011;57318;56.232;43.944;2023-08-06T04:27:27;6.57;;;5.40;;
69979;SDS011;57318;56.232;43.944;2023-08-06T04:29:53;5.57;;;4.80;;
69979;SDS011;57318;56.232;43.944;2023-08-06T04:32:19;9.68;;;4.78;;
69979;SDS011;57318;56.232;43.944;2023-08-06T04:34:44;12.40;;;5.10;;
69979;SDS011;57318;56.232;43.944;2023-08-06T04:37:10;6.10;;;4.65;;
69979;SDS011;57318;56.232;43.944;2023-08-06T04:39:36;7.20;;;4.73;;
69979;SDS011;57318;56.232;43.944;2023-08-06T04:42:02;5.15;;;4.65;;
69979;SDS011;57318;56.232;43.944;2023-08-06T04:44:28;7.05;;;4.72;;
69979;SDS011;57318;56.232;43.944;2023-08-06T04:46:53;5.40;;;4.90;;
69979;SDS011;57318;56.232;43.944;2023-08-06T04:49:22;6.15;;;4.78;;
69979;SDS011;57318;56.232;43.944;2023-08-06T04:51:50;10.13;;;4.88;;
69979;SDS011;57318;56.232;43.944;2023-08-06T04:54:16;6.80;;;5.20;;
69979;SDS011;57318;56.232;43.944;2023-08-06T04:56:42;7.40;;;4.90;;
69979;SDS011;57318;56.232;43.944;2023-08-06T04:59:08;6.00;;;5.28;;
69979;SDS011;57318;56.232;43.944;2023-08-06T05:01:34;6.40;;;4.50;;
69979;SDS011;57318;56.232;43.944;2023-08-06T05:03:59;6.03;;;4.50;;
69979;SDS011;57318;56.232;43.944;2023-08-06T05:06:25;8.60;;;4.80;;
69979;SDS011;57318;56.232;43.944;2023-08-06T05:08:51;6.22;;;4.47;;
69979;SDS011;57318;56.232;43.944;2023-08-06T05:11:16;7.35;;;4.63;;
69979;SDS011;57318;56.232;43.944;2023-08-06T05:13:42;7.10;;;4.88;;
69979;SDS011;57318;56.232;43.944;2023-08-06T05:16:08;11.27;;;5.82;;
69979;SDS011;57318;56.232;43.944;2023-08-06T05:18:33;11.32;;;5.90;;
69979;SDS011;57318;56.232;43.944;2023-08-06T05:21:00;6.82;;;4.75;;
69979;SDS011;57318;56.232;43.944;2023-08-06T05:23:26;6.30;;;4.55;;
69979;SDS011;57318;56.232;43.944;2023-08-06T05:25:52;5.65;;;3.70;;
69979;SDS011;57318;56.232;43.944;2023-08-06T05:28:18;6.05;;;4.35;;
69979;SDS011;57318;56.232;43.944;2023-08-06T05:30:43;4.88;;;4.18;;
69979;SDS011;57318;56.232;43.944;2023-08-06T05:33:09;4.75;;;3.70;;
69979;SDS011;57318;56.232;43.944;2023-08-06T05:35:35;3.90;;;3.60;;
69979;SDS011;57318;56.232;43.944;2023-08-06T05:38:01;5.28;;;4.05;;
69979;SDS011;57318;56.232;43.944;2023-08-06T05:40:26;7.10;;;4.15;;
69979;SDS011;57318;56.232;43.944;2023-08-06T05:42:53;8.93;;;4.30;;
69979;SDS011;57318;56.232;43.944;2023-08-06T05:45:19;8.90;;;4.30;;
69979;SDS011;57318;56.232;43.944;2023-08-06T05:47:47;5.38;;;4.40;;
69979;SDS011;57318;56.232;43.944;2023-08-06T05:50:13;6.25;;;4.10;;
69979;SDS011;57318;56.232;43.944;2023-08-06T05:52:39;8.45;;;4.13;;
69979;SDS011;57318;56.232;43.944;2023-08-06T05:55:05;7.32;;;5.00;;
69979;SDS011;57318;56.232;43.944;2023-08-06T05:57:31;6.20;;;4.07;;
69979;SDS011;57318;56.232;43.944;2023-08-06T05:59:57;7.70;;;4.10;;
69979;SDS011;57318;56.232;43.944;2023-08-06T06:02:22;6.07;;;3.72;;
69979;SDS011;57318;56.232;43.944;2023-08-06T06:04:48;6.40;;;3.85;;
69979;SDS011;57318;56.232;43.944;2023-08-06T06:07:14;5.50;;;3.80;;
69979;SDS011;57318;56.232;43.944;2023-08-06T06:09:40;5.00;;;3.75;;
69979;SDS011;57318;56.232;43.944;2023-08-06T06:12:06;8.05;;;4.20;;
69979;SDS011;57318;56.232;43.944;2023-08-06T06:14:32;9.80;;;3.97;;
69979;SDS011;57318;56.232;43.944;2023-08-06T06:16:58;13.32;;;4.50;;
69979;SDS011;57318;56.232;43.944;2023-08-06T06:19:25;8.82;;;4.30;;
69979;SDS011;57318;56.232;43.944;2023-08-06T06:21:51;5.85;;;3.88;;
69979;SDS011;57318;56.232;43.944;2023-08-06T06:24:17;6.70;;;4.28;;
69979;SDS011;57318;56.232;43.944;2023-08-06T06:26:42;7.15;;;4.50;;
69979;SDS011;57318;56.232;43.944;2023-08-06T06:29:08;5.82;;;4.47;;
69979;SDS011;57318;56.232;43.944;2023-08-06T06:31:34;8.10;;;4.65;;
69979;SDS011;57318;56.232;43.944;2023-08-06T06:33:59;6.72;;;4.93;;
69979;SDS011;57318;56.232;43.944;2023-08-06T06:36:26;6.38;;;4.72;;
69979;SDS011;57318;56.232;43.944;2023-08-06T06:38:51;5.93;;;3.95;;
69979;SDS011;57318;56.232;43.944;2023-08-06T06:41:17;9.13;;;4.30;;
69979;SDS011;57318;56.232;43.944;2023-08-06T06:46:08;7.35;;;3.92;;
69979;SDS011;57318;56.232;43.944;2023-08-06T06:48:34;7.13;;;3.80;;
69979;SDS011;57318;56.232;43.944;2023-08-06T06:51:00;6.53;;;3.53;;
69979;SDS011;57318;56.232;43.944;2023-08-06T06:53:26;8.93;;;3.80;;
69979;SDS011;57318;56.232;43.944;2023-08-06T06:55:56;9.27;;;3.90;;
69979;SDS011;57318;56.232;43.944;2023-08-06T06:58:26;3.97;;;3.00;;
69979;SDS011;57318;56.232;43.944;2023-08-06T07:00:51;9.60;;;2.90;;
69979;SDS011;57318;56.232;43.944;2023-08-06T07:03:17;2.80;;;2.60;;
69979;SDS011;57318;56.232;43.944;2023-08-06T07:05:44;3.15;;;2.65;;
69979;SDS011;57318;56.232;43.944;2023-08-06T07:08:10;6.25;;;2.90;;
69979;SDS011;57318;56.232;43.944;2023-08-06T07:10:36;5.75;;;2.60;;
69979;SDS011;57318;56.232;43.944;2023-08-06T07:13:03;2.20;;;2.00;;
69979;SDS011;57318;56.232;43.944;2023-08-06T07:15:28;4.30;;;2.10;;
69979;SDS011;57318;56.232;43.944;2023-08-06T07:17:54;2.72;;;2.30;;
69979;SDS011;57318;56.232;43.944;2023-08-06T07:20:20;3.08;;;2.30;;
69979;SDS011;57318;56.232;43.944;2023-08-06T07:22:46;3.85;;;2.42;;
69979;SDS011;57318;56.232;43.944;2023-08-06T07:25:12;3.58;;;2.17;;
69979;SDS011;57318;56.232;43.944;2023-08-06T07:27:38;3.88;;;2.60;;
69979;SDS011;57318;56.232;43.944;2023-08-06T07:30:06;7.75;;;2.70;;
69979;SDS011;57318;56.232;43.944;2023-08-06T07:32:32;3.47;;;2.60;;
69979;SDS011;57318;56.232;43.944;2023-08-06T07:34:58;3.63;;;2.58;;
69979;SDS011;57318;56.232;43.944;2023-08-06T07:37:30;3.22;;;2.03;;
69979;SDS011;57318;56.232;43.944;2023-08-06T07:39:56;3.90;;;2.63;;
69979;SDS011;57318;56.232;43.944;2023-08-06T07:42:22;3.38;;;3.08;;
69979;SDS011;57318;56.232;43.944;2023-08-06T07:44:55;5.25;;;3.40;;
69979;SDS011;57318;56.232;43.944;2023-08-06T07:47:22;7.40;;;3.88;;
69979;SDS011;57318;56.232;43.944;2023-08-06T07:49:48;4.93;;;3.30;;
69979;SDS011;57318;56.232;43.944;2023-08-06T07:52:14;8.23;;;4.03;;
69979;SDS011;57318;56.232;43.944;2023-08-06T07:54:40;3.55;;;2.90;;
69979;SDS011;57318;56.232;43.944;2023-08-06T07:57:06;4.38;;;3.60;;
69979;SDS011;57318;56.232;43.944;2023-08-06T07:59:32;8.38;;;3.70;;
69979;SDS011;57318;56.232;43.944;2023-08-06T08:01:58;7.35;;;3.78;;
69979;SDS011;57318;56.232;43.944;2023-08-06T08:04:24;4.45;;;3.60;;
69979;SDS011;57318;56.232;43.944;2023-08-06T08:06:50;5.00;;;3.67;;
69979;SDS011;57318;56.232;43.944;2023-08-06T08:09:18;5.15;;;3.80;;
69979;SDS011;57318;56.232;43.944;2023-08-06T08:11:44;5.07;;;3.90;;
69979;SDS011;57318;56.232;43.944;2023-08-06T08:14:09;6.57;;;3.95;;
69979;SDS011;57318;56.232;43.944;2023-08-06T08:16:35;5.18;;;3.90;;
69979;SDS011;57318;56.232;43.944;2023-08-06T08:19:01;6.45;;;3.92;;
69979;SDS011;57318;56.232;43.944;2023-08-06T08:21:29;4.57;;;3.55;;
69979;SDS011;57318;56.232;43.944;2023-08-06T08:23:55;5.28;;;4.00;;
69979;SDS011;57318;56.232;43.944;2023-08-06T08:26:20;7.60;;;3.70;;
69979;SDS011;57318;56.232;43.944;2023-08-06T08:28:46;7.03;;;3.40;;
69979;SDS011;57318;56.232;43.944;2023-08-06T08:31:12;6.07;;;3.70;;
69979;SDS011;57318;56.232;43.944;2023-08-06T08:33:38;9.57;;;6.18;;
69979;SDS011;57318;56.232;43.944;2023-08-06T08:36:04;4.78;;;3.80;;
69979;SDS011;57318;56.232;43.944;2023-08-06T08:38:30;4.45;;;3.90;;
69979;SDS011;57318;56.232;43.944;2023-08-06T08:40:55;6.07;;;4.03;;
69979;SDS011;57318;56.232;43.944;2023-08-06T08:43:21;6.80;;;4.50;;
69979;SDS011;57318;56.232;43.944;2023-08-06T08:45:51;8.13;;;4.50;;
69979;SDS011;57318;56.232;43.944;2023-08-06T08:48:20;9.13;;;4.40;;
69979;SDS011;57318;56.232;43.944;2023-08-06T08:50:48;4.45;;;4.03;;
69979;SDS011;57318;56.232;43.944;2023-08-06T08:53:15;5.43;;;4.43;;
69979;SDS011;57318;56.232;43.944;2023-08-06T08:55:44;6.10;;;4.40;;
69979;SDS011;57318;56.232;43.944;2023-08-06T08:58:12;5.60;;;4.85;;
69979;SDS011;57318;56.232;43.944;2023-08-06T09:00:38;7.90;;;4.50;;
69979;SDS011;57318;56.232;43.944;2023-08-06T09:03:10;7.25;;;5.32;;
69979;SDS011;57318;56.232;43.944;2023-08-06T09:05:36;6.80;;;5.22;;
69979;SDS011;57318;56.232;43.944;2023-08-06T09:08:08;6.28;;;4.60;;
69979;SDS011;57318;56.232;43.944;2023-08-06T09:10:37;8.00;;;4.80;;
69979;SDS011;57318;56.232;43.944;2023-08-06T09:13:04;7.60;;;4.50;;
69979;SDS011;57318;56.232;43.944;2023-08-06T09:15:31;6.88;;;4.40;;
69979;SDS011;57318;56.232;43.944;2023-08-06T09:17:58;7.28;;;4.50;;
69979;SDS011;57318;56.232;43.944;2023-08-06T09:20:24;6.80;;;4.90;;
69979;SDS011;57318;56.232;43.944;2023-08-06T09:22:52;11.32;;;4.70;;
69979;SDS011;57318;56.232;43.944;2023-08-06T09:25:22;5.20;;;4.45;;
69979;SDS011;57318;56.232;43.944;2023-08-06T09:27:50;5.72;;;4.72;;
69979;SDS011;57318;56.232;43.944;2023-08-06T09:30:50;4.55;;;4.15;;
69979;SDS011;57318;56.232;43.944;2023-08-06T09:33:09;5.70;;;4.00;;
69979;SDS011;57318;56.232;43.944;2023-08-06T09:35:41;4.40;;;3.80;;
69979;SDS011;57318;56.232;43.944;2023-08-06T09:38:07;7.88;;;4.00;;
69979;SDS011;57318;56.232;43.944;2023-08-06T09:40:35;6.93;;;4.00;;
69979;SDS011;57318;56.232;43.944;2023-08-06T09:43:01;5.35;;;3.35;;
69979;SDS011;57318;56.232;43.944;2023-08-06T09:45:37;3.80;;;3.40;;
69979;SDS011;57318;56.232;43.944;2023-08-06T09:48:04;5.47;;;3.80;;
69979;SDS011;57318;56.232;43.944;2023-08-06T09:50:31;3.83;;;3.38;;
69979;SDS011;57318;56.232;43.944;2023-08-06T09:52:58;3.63;;;3.30;;
69979;SDS011;57318;56.232;43.944;2023-08-06T09:55:25;9.07;;;3.80;;
69979;SDS011;57318;56.232;43.944;2023-08-06T09:57:52;5.78;;;3.03;;
69979;SDS011;57318;56.232;43.944;2023-08-06T10:00:19;3.83;;;3.28;;
69979;SDS011;57318;56.232;43.944;2023-08-06T10:02:45;4.88;;;3.30;;
69979;SDS011;57318;56.232;43.944;2023-08-06T10:05:11;5.15;;;3.03;;
69979;SDS011;57318;56.232;43.944;2023-08-06T10:07:37;4.30;;;3.17;;
69979;SDS011;57318;56.232;43.944;2023-08-06T10:10:05;4.72;;;2.90;;
69979;SDS011;57318;56.232;43.944;2023-08-06T10:12:34;5.85;;;2.70;;
69979;SDS011;57318;56.232;43.944;2023-08-06T10:15:09;2.75;;;2.55;;
69979;SDS011;57318;56.232;43.944;2023-08-06T10:17:37;2.90;;;2.70;;
69979;SDS011;57318;56.232;43.944;2023-08-06T10:20:09;3.10;;;2.67;;
69979;SDS011;57318;56.232;43.944;2023-08-06T10:22:35;2.72;;;2.53;;
69979;SDS011;57318;56.232;43.944;2023-08-06T10:25:02;3.55;;;2.65;;
69979;SDS011;57318;56.232;43.944;2023-08-06T10:27:39;3.17;;;2.40;;
69979;SDS011;57318;56.232;43.944;2023-08-06T10:30:24;3.17;;;2.97;;
69979;SDS011;57318;56.232;43.944;2023-08-06T10:32:54;3.53;;;2.95;;
69979;SDS011;57318;56.232;43.944;2023-08-06T10:35:28;6.15;;;3.00;;
69979;SDS011;57318;56.232;43.944;2023-08-06T10:38:04;2.80;;;2.60;;
69979;SDS011;57318;56.232;43.944;2023-08-06T10:40:31;3.00;;;2.80;;
69979;SDS011;57318;56.232;43.944;2023-08-06T10:43:01;5.47;;;2.83;;
69979;SDS011;57318;56.232;43.944;2023-08-06T10:45:27;5.03;;;2.58;;
69979;SDS011;57318;56.232;43.944;2023-08-06T10:47:54;3.65;;;2.72;;
69979;SDS011;57318;56.232;43.944;2023-08-06T10:50:24;2.95;;;2.40;;
69979;SDS011;57318;56.232;43.944;2023-08-06T10:52:50;3.03;;;2.67;;
69979;SDS011;57318;56.232;43.944;2023-08-06T10:55:29;3.20;;;2.80;;
69979;SDS011;57318;56.232;43.944;2023-08-06T10:57:55;2.67;;;2.40;;
69979;SDS011;57318;56.232;43.944;2023-08-06T11:00:23;3.10;;;2.60;;
69979;SDS011;57318;56.232;43.944;2023-08-06T11:02:49;3.85;;;2.70;;
69979;SDS011;57318;56.232;43.944;2023-08-06T11:05:16;3.05;;;2.50;;
69979;SDS011;57318;56.232;43.944;2023-08-06T11:07:42;3.70;;;2.53;;
69979;SDS011;57318;56.232;43.944;2023-08-06T11:10:10;3.40;;;2.30;;
69979;SDS011;57318;56.232;43.944;2023-08-06T11:12:37;3.20;;;2.50;;
69979;SDS011;57318;56.232;43.944;2023-08-06T11:15:03;5.63;;;2.42;;
69979;SDS011;57318;56.232;43.944;2023-08-06T11:17:33;3.38;;;2.55;;
69979;SDS011;57318;56.232;43.944;2023-08-06T11:20:03;6.10;;;2.70;;
69979;SDS011;57318;56.232;43.944;2023-08-06T11:22:32;3.17;;;2.88;;
69979;SDS011;57318;56.232;43.944;2023-08-06T11:24:58;3.50;;;2.53;;
69979;SDS011;57318;56.232;43.944;2023-08-06T11:27:27;3.35;;;2.13;;
69979;SDS011;57318;56.232;43.944;2023-08-06T11:29:54;3.45;;;2.45;;
69979;SDS011;57318;56.232;43.944;2023-08-06T11:32:20;2.70;;;2.40;;
69979;SDS011;57318;56.232;43.944;2023-08-06T11:34:46;3.08;;;2.40;;
69979;SDS011;57318;56.232;43.944;2023-08-06T11:37:11;3.85;;;2.30;;
69979;SDS011;57318;56.232;43.944;2023-08-06T11:39:37;8.82;;;2.60;;
69979;SDS011;57318;56.232;43.944;2023-08-06T11:42:04;2.47;;;2.20;;
69979;SDS011;57318;56.232;43.944;2023-08-06T11:44:36;3.08;;;2.40;;
69979;SDS011;57318;56.232;43.944;2023-08-06T11:47:03;2.65;;;2.45;;
69979;SDS011;57318;56.232;43.944;2023-08-06T11:49:41;3.05;;;2.45;;
69979;SDS011;57318;56.232;43.944;2023-08-06T11:52:18;2.88;;;2.47;;
69979;SDS011;57318;56.232;43.944;2023-08-06T11:55:01;5.38;;;2.53;;
69979;SDS011;57318;56.232;43.944;2023-08-06T11:57:39;2.55;;;2.35;;
69979;SDS011;57318;56.232;43.944;2023-08-06T12:00:12;5.53;;;2.50;;
69979;SDS011;57318;56.232;43.944;2023-08-06T12:02:39;3.20;;;2.30;;
69979;SDS011;57318;56.232;43.944;2023-08-06T12:05:10;9.40;;;3.22;;
69979;SDS011;57318;56.232;43.944;2023-08-06T12:07:40;3.45;;;2.30;;
69979;SDS011;57318;56.232;43.944;2023-08-06T12:10:08;3.20;;;2.63;;
69979;SDS011;57318;56.232;43.944;2023-08-06T12:12:34;4.20;;;2.47;;
69979;SDS011;57318;56.232;43.944;2023-08-06T12:15:00;3.22;;;2.60;;
69979;SDS011;57318;56.232;43.944;2023-08-06T12:17:30;3.25;;;2.90;;
69979;SDS011;57318;56.232;43.944;2023-08-06T12:19:56;3.28;;;2.60;;
69979;SDS011;57318;56.232;43.944;2023-08-06T12:22:22;4.00;;;3.25;;
69979;SDS011;57318;56.232;43.944;2023-08-06T12:24:47;4.30;;;3.13;;
69979;SDS011;57318;56.232;43.944;2023-08-06T12:27:13;6.53;;;2.83;;
69979;SDS011;57318;56.232;43.944;2023-08-06T12:29:45;4.88;;;2.72;;
69979;SDS011;57318;56.232;43.944;2023-08-06T12:32:12;4.40;;;2.67;;
69979;SDS011;57318;56.232;43.944;2023-08-06T12:34:41;3.03;;;2.80;;
69979;SDS011;57318;56.232;43.944;2023-08-06T12:37:08;5.47;;;3.38;;
69979;SDS011;57318;56.232;43.944;2023-08-06T12:39:34;5.20;;;3.10;;
69979;SDS011;57318;56.232;43.944;2023-08-06T12:42:01;4.13;;;3.03;;
69979;SDS011;57318;56.232;43.944;2023-08-06T12:44:28;3.97;;;3.53;;
69979;SDS011;57318;56.232;43.944;2023-08-06T12:46:54;6.47;;;2.88;;
69979;SDS011;57318;56.232;43.944;2023-08-06T12:49:20;3.15;;;2.83;;
69979;SDS011;57318;56.232;43.944;2023-08-06T12:51:50;3.83;;;2.80;;
69979;SDS011;57318;56.232;43.944;2023-08-06T12:54:16;5.35;;;3.10;;
69979;SDS011;57318;56.232;43.944;2023-08-06T12:56:43;3.70;;;3.10;;
69979;SDS011;57318;56.232;43.944;2023-08-06T12:59:09;3.83;;;3.00;;
69979;SDS011;57318;56.232;43.944;2023-08-06T13:01:36;3.45;;;3.00;;
69979;SDS011;57318;56.232;43.944;2023-08-06T13:04:03;3.25;;;2.95;;
69979;SDS011;57318;56.232;43.944;2023-08-06T13:06:29;6.10;;;3.20;;
69979;SDS011;57318;56.232;43.944;2023-08-06T13:08:56;3.53;;;3.22;;
69979;SDS011;57318;56.232;43.944;2023-08-06T13:11:22;5.43;;;3.00;;
69979;SDS011;57318;56.232;43.944;2023-08-06T13:13:48;3.10;;;2.67;;
69979;SDS011;57318;56.232;43.944;2023-08-06T13:16:14;4.18;;;2.80;;
69979;SDS011;57318;56.232;43.944;2023-08-06T13:18:40;3.53;;;2.72;;
69979;SDS011;57318;56.232;43.944;2023-08-06T13:21:06;4.28;;;2.90;;
69979;SDS011;57318;56.232;43.944;2023-08-06T13:23:31;4.13;;;2.97;;
69979;SDS011;57318;56.232;43.944;2023-08-06T13:25:57;3.22;;;2.78;;
69979;SDS011;57318;56.232;43.944;2023-08-06T13:28:24;3.80;;;3.03;;
69979;SDS011;57318;56.232;43.944;2023-08-06T13:30:49;4.60;;;3.60;;
69979;SDS011;57318;56.232;43.944;2023-08-06T13:33:15;5.28;;;3.25;;
69979;SDS011;57318;56.232;43.944;2023-08-06T13:35:41;3.65;;;2.65;;
69979;SDS011;57318;56.232;43.944;2023-08-06T13:38:06;3.28;;;2.70;;
69979;SDS011;57318;56.232;43.944;2023-08-06T13:40:32;3.45;;;2.70;;
69979;SDS011;57318;56.232;43.944;2023-08-06T13:42:59;4.43;;;2.88;;
69979;SDS011;57318;56.232;43.944;2023-08-06T13:45:25;4.97;;;2.55;;
69979;SDS011;57318;56.232;43.944;2023-08-06T13:47:51;4.18;;;2.50;;
69979;SDS011;57318;56.232;43.944;2023-08-06T13:50:17;5.30;;;2.70;;
69979;SDS011;57318;56.232;43.944;2023-08-06T13:52:44;7.18;;;3.00;;
69979;SDS011;57318;56.232;43.944;2023-08-06T13:55:09;5.60;;;2.58;;
69979;SDS011;57318;56.232;43.944;2023-08-06T13:57:35;3.97;;;3.03;;
69979;SDS011;57318;56.232;43.944;2023-08-06T14:00:01;4.97;;;3.00;;
69979;SDS011;57318;56.232;43.944;2023-08-06T14:02:30;4.18;;;2.72;;
69979;SDS011;57318;56.232;43.944;2023-08-06T14:04:56;4.25;;;2.83;;
69979;SDS011;57318;56.232;43.944;2023-08-06T14:07:22;3.58;;;2.50;;
69979;SDS011;57318;56.232;43.944;2023-08-06T14:09:48;6.65;;;3.05;;
69979;SDS011;57318;56.232;43.944;2023-08-06T14:12:14;4.88;;;2.90;;
69979;SDS011;57318;56.232;43.944;2023-08-06T14:14:40;7.35;;;2.80;;
69979;SDS011;57318;56.232;43.944;2023-08-06T14:17:06;2.95;;;2.50;;
69979;SDS011;57318;56.232;43.944;2023-08-06T14:19:32;6.28;;;2.60;;
69979;SDS011;57318;56.232;43.944;2023-08-06T14:21:57;3.58;;;2.35;;
69979;SDS011;57318;56.232;43.944;2023-08-06T14:24:23;4.75;;;2.88;;
69979;SDS011;57318;56.232;43.944;2023-08-06T14:26:49;5.78;;;3.08;;
69979;SDS011;57318;56.232;43.944;2023-08-06T14:29:15;4.10;;;2.70;;
69979;SDS011;57318;56.232;43.944;2023-08-06T14:31:40;4.85;;;2.55;;
69979;SDS011;57318;56.232;43.944;2023-08-06T14:34:06;4.88;;;2.90;;
69979;SDS011;57318;56.232;43.944;2023-08-06T14:36:32;5.30;;;2.63;;